Time;durP1;ratioP1;P1;durP2;ratioP2;P2;SDS_P1;SDS_P2;PMS_P1;PMS_P2;Temp;Humidity;BMP_temperature;BMP_pressure;BME280_temperature;BME280_humidity;BME280_pressure;Samples;Min_cycle;Max_cycle;Signal;HPM_P1;HPM_P2
2021/04/12 00:00:33;;;;;;;3.90;3.20;;;;;;;1.62;100.00;98435.87;3711826;78;44083;-27
2021/04/12 00:05:43;;;;;;;3.80;3.20;;;;;;;1.57;100.00;98449.95;3728482;77;43702;-26
2021/04/12 00:10:57;;;;;;;3.50;2.80;;;;;;;1.53;100.00;98455.46;3733879;77;43931;-26
2021/04/12 00:16:07;;;;;;;2.77;2.23;;;;;;;1.46;100.00;98460.82;3742568;77;43212;-25
2021/04/12 00:21:16;;;;;;;2.57;2.10;;;;;;;1.30;100.00;98466.27;3735059;77;44679;-25
2021/04/12 00:26:25;;;;;;;2.57;1.87;;;;;;;1.21;100.00;98473.06;3748604;77;44403;-25
2021/04/12 00:31:34;;;;;;;2.80;2.13;;;;;;;0.94;100.00;98464.24;3731940;77;43718;-25
2021/04/12 00:36:43;;;;;;;1.90;1.60;;;;;;;0.83;100.00;98487.01;3731294;77;43358;-27
2021/04/12 00:42:01;;;;;;;2.20;1.60;;;;;;;0.86;100.00;98478.86;3738521;77;43398;-26
2021/04/12 00:47:16;;;;;;;9.53;2.00;;;;;;;0.74;100.00;98488.44;3735412;77;44435;-27
2021/04/12 00:52:53;;;;;;;11.97;2.27;;;;;;;0.69;100.00;98506.45;3733435;77;43269;-27
2021/04/12 00:58:04;;;;;;;2.50;1.60;;;;;;;0.64;100.00;98505.88;3729567;77;42917;-27
2021/04/12 01:03:19;;;;;;;2.03;1.60;;;;;;;0.63;100.00;98501.52;3726724;77;44033;-27
2021/04/12 01:09:10;;;;;;;2.40;1.70;;;;;;;0.58;100.00;98511.58;3737086;78;44229;-27
2021/04/12 01:14:48;;;;;;;2.27;1.80;;;;;;;0.54;100.00;98516.69;3741502;78;43699;-25
2021/04/12 01:20:21;;;;;;;2.30;1.70;;;;;;;0.50;100.00;98530.61;3724720;78;44028;-27
2021/04/12 01:26:05;;;;;;;2.70;2.10;;;;;;;0.48;100.00;98525.88;3713604;78;42941;-26
2021/04/12 01:31:52;;;;;;;2.40;1.80;;;;;;;0.52;100.00;98526.07;3671221;78;44035;-26
2021/04/12 01:37:13;;;;;;;2.77;2.00;;;;;;;0.51;100.00;98516.41;3710555;78;43377;-26
2021/04/12 01:42:28;;;;;;;2.97;2.00;;;;;;;0.58;100.00;98524.35;3712807;78;43488;-26
2021/04/12 01:47:44;;;;;;;3.33;2.30;;;;;;;0.60;100.00;98529.55;3727199;78;43491;-26
2021/04/12 01:53:26;;;;;;;3.60;2.40;;;;;;;0.64;100.00;98536.86;3729312;78;44146;-26
2021/04/12 01:58:42;;;;;;;3.93;2.47;;;;;;;0.60;100.00;98537.05;3725992;78;44667;-21
2021/04/12 02:03:56;;;;;;;4.07;2.33;;;;;;;0.47;100.00;98546.70;3710967;77;43715;-21
2021/04/12 02:09:09;;;;;;;3.17;2.30;;;;;;;0.38;100.00;98555.22;3731340;77;44189;-22
2021/04/12 02:14:36;;;;;;;3.77;2.70;;;;;;;0.29;100.00;98562.77;3612701;80;44435;-21
2021/04/12 02:20:12;;;;;;;3.97;2.20;;;;;;;0.21;100.00;98551.78;3737609;77;44566;-21
2021/04/12 02:25:24;;;;;;;3.40;2.33;;;;;;;0.18;100.00;98546.66;3742907;77;44485;-21
2021/04/12 02:30:34;;;;;;;24.27;3.53;;;;;;;0.13;100.00;98550.91;3818396;77;44500;-21
2021/04/12 02:35:44;;;;;;;99.43;7.17;;;;;;;0.10;100.00;98551.58;3742352;77;43439;-21
2021/04/12 02:41:28;;;;;;;95.67;7.40;;;;;;;0.11;100.00;98565.20;3746055;77;44117;-20
2021/04/12 02:46:48;;;;;;;24.60;4.47;;;;;;;0.09;100.00;98552.06;3701180;77;43689;-21
2021/04/12 02:52:02;;;;;;;37.83;4.90;;;;;;;0.11;100.00;98569.18;3722795;77;44597;-21
2021/04/12 02:57:53;;;;;;;9.03;3.17;;;;;;;0.09;100.00;98582.53;3727294;77;44115;-21
2021/04/12 03:03:34;;;;;;;8.10;3.30;;;;;;;0.09;100.00;98573.71;3714486;77;43369;-21
2021/04/12 03:09:26;;;;;;;5.20;3.27;;;;;;;0.12;100.00;98565.59;3561125;81;43320;-21
2021/04/12 03:14:57;;;;;;;4.77;3.00;;;;;;;0.12;100.00;98572.21;3598146;78;43714;-22
2021/04/12 03:20:31;;;;;;;14.07;4.10;;;;;;;0.11;100.00;98578.00;3711106;78;44109;-22
2021/04/12 03:25:43;;;;;;;86.90;7.70;;;;;;;0.11;100.00;98579.78;3721965;78;44078;-22
2021/04/12 03:31:09;;;;;;;5.43;3.63;;;;;;;0.12;100.00;98592.09;3711267;78;44070;-21
2021/04/12 03:36:23;;;;;;;6.40;3.70;;;;;;;0.10;100.00;98591.31;3721009;78;44078;-22
2021/04/12 03:41:48;;;;;;;7.07;3.63;;;;;;;0.13;100.00;98604.39;3712035;78;43037;-22
2021/04/12 03:47:22;;;;;;;6.60;3.80;;;;;;;0.09;100.00;98602.85;3718142;78;43424;-22
2021/04/12 03:53:00;;;;;;;6.80;3.77;;;;;;;0.10;100.00;98616.48;3707537;78;44098;-22
2021/04/12 03:58:28;;;;;;;7.37;4.50;;;;;;;0.09;100.00;98621.40;3719308;78;44929;-21
2021/04/12 04:03:48;;;;;;;6.70;4.23;;;;;;;0.13;100.00;98629.56;3708640;78;44082;-21
2021/04/12 04:09:16;;;;;;;7.87;4.37;;;;;;;0.13;100.00;98648.94;3743292;77;42601;-21
2021/04/12 04:14:46;;;;;;;7.13;4.33;;;;;;;0.17;100.00;98652.29;3731499;77;44111;-21
2021/04/12 04:20:00;;;;;;;9.30;4.50;;;;;;;0.17;100.00;98649.64;3739939;77;43391;-20
2021/04/12 04:25:23;;;;;;;8.30;4.17;;;;;;;0.18;100.00;98648.67;3763070;77;44553;-21
2021/04/12 04:31:02;;;;;;;8.57;4.90;;;;;;;0.20;100.00;98666.66;3743737;77;43722;-21
2021/04/12 04:36:29;;;;;;;8.77;4.87;;;;;;;0.23;100.00;98671.78;3756343;77;44471;-22
2021/04/12 04:41:46;;;;;;;7.77;4.80;;;;;;;0.26;100.00;98687.52;3753578;77;44034;-22
2021/04/12 04:47:02;;;;;;;9.30;4.70;;;;;;;0.27;100.00;98698.50;3733292;77;44153;-22
2021/04/12 04:52:40;;;;;;;10.27;5.83;;;;;;;0.27;100.00;98691.88;3733806;77;43726;-21
2021/04/12 04:57:53;;;;;;;12.97;6.27;;;;;;;0.32;100.00;98709.28;3734414;77;43756;-21
2021/04/12 05:03:13;;;;;;;11.97;6.17;;;;;;;0.33;100.00;98706.56;3728227;77;44081;-22
2021/04/12 05:09:15;;;;;;;14.07;6.90;;;;;;;0.38;100.00;98711.59;3757152;77;43303;-22
2021/04/12 05:14:50;;;;;;;14.47;6.93;;;;;;;0.45;100.00;98712.93;3665112;80;44512;-22
2021/04/12 05:20:03;;;;;;;16.30;7.70;;;;;;;0.48;100.00;98718.06;3735617;77;44736;-22
2021/04/12 05:25:23;;;;;;;16.57;8.03;;;;;;;0.52;100.00;98723.58;3761218;77;43146;-22
2021/04/12 05:30:53;;;;;;;16.07;7.80;;;;;;;0.57;100.00;98732.09;3757826;77;44557;-21
2021/04/12 05:36:30;;;;;;;17.67;8.20;;;;;;;0.64;100.00;98739.70;3753551;77;44402;-22
2021/04/12 05:41:59;;;;;;;17.63;9.07;;;;;;;0.74;100.00;98755.45;3719099;77;44554;-23
2021/04/12 05:47:25;;;;;;;21.17;8.87;;;;;;;0.82;100.00;98769.58;3758499;77;44133;-22
2021/04/12 05:52:58;;;;;;;18.87;8.97;;;;;;;0.89;100.00;98774.41;3752251;77;44550;-22
2021/04/12 05:58:29;;;;;;;17.73;9.17;;;;;;;1.00;100.00;98795.48;3759711;77;44090;-22
2021/04/12 06:03:44;;;;;;;18.30;9.57;;;;;;;1.06;100.00;98803.91;3748795;77;43686;-22
2021/04/12 06:09:00;;;;;;;18.27;8.77;;;;;;;1.13;100.00;98808.87;3734938;77;43352;-21
2021/04/12 06:14:48;;;;;;;19.93;9.47;;;;;;;1.17;100.00;98804.61;3737251;77;44115;-21
2021/04/12 06:20:30;;;;;;;17.97;8.90;;;;;;;1.25;100.00;98811.24;3778967;77;44214;-22
2021/04/12 06:26:09;;;;;;;16.63;8.43;;;;;;;1.38;100.00;98820.17;3757273;77;44193;-22
2021/04/12 06:31:38;;;;;;;14.90;7.80;;;;;;;1.38;100.00;98833.45;3729298;77;44053;-21
2021/04/12 06:36:52;;;;;;;16.23;8.47;;;;;;;1.45;100.00;98840.11;3722132;79;43968;-22
2021/04/12 06:42:36;;;;;;;14.30;8.20;;;;;;;1.45;100.00;98845.42;3721923;79;43664;-21
2021/04/12 06:48:25;;;;;;;15.40;8.37;;;;;;;1.56;100.00;98849.22;3719427;79;44528;-21
2021/04/12 06:54:05;;;;;;;15.90;8.30;;;;;;;1.61;100.00;98857.74;3704113;79;44129;-21
2021/04/12 07:00:05;;;;;;;15.03;8.37;;;;;;;1.85;100.00;98856.72;3694427;77;43397;-20
2021/04/12 07:05:43;;;;;;;13.10;7.63;;;;;;;1.98;100.00;98860.79;3718072;79;44264;-23
2021/04/12 07:11:16;;;;;;;14.37;8.33;;;;;;;2.09;100.00;98871.59;3659494;80;85511;-22
2021/04/12 07:16:53;;;;;;;13.00;8.07;;;;;;;2.09;100.00;98877.41;3640706;80;43350;-22
2021/04/12 07:22:23;;;;;;;14.97;8.60;;;;;;;2.15;100.00;98884.52;3637702;80;42629;-21
2021/04/12 07:28:24;;;;;;;14.10;7.63;;;;;;;2.30;100.00;98897.77;3640369;80;43395;-21
2021/04/12 07:33:56;;;;;;;13.47;8.23;;;;;;;2.38;100.00;98899.95;3640535;80;44052;-20
2021/04/12 07:39:38;;;;;;;13.50;8.07;;;;;;;2.49;100.00;98899.28;3637621;80;44018;-20
2021/04/12 07:45:44;;;;;;;13.67;7.67;;;;;;;2.45;100.00;98899.95;3637737;80;43621;-21
2021/04/12 07:51:28;;;;;;;10.20;6.50;;;;;;;2.46;100.00;98902.50;3636952;80;43696;-21
2021/04/12 07:57:09;;;;;;;10.00;6.70;;;;;;;2.30;100.00;98921.70;3636073;80;44088;-21
2021/04/12 08:02:32;;;;;;;10.57;6.43;;;;;;;2.48;100.00;98934.80;3642022;80;43999;-21
2021/04/12 08:08:17;;;;;;;9.13;5.40;;;;;;;2.59;100.00;98934.97;3653856;79;43485;-21
2021/04/12 08:14:00;;;;;;;9.67;5.80;;;;;;;2.52;100.00;98929.67;3700026;78;43419;-22
2021/04/12 08:19:16;;;;;;;7.50;4.80;;;;;;;2.50;100.00;98929.75;3678653;79;43007;-21
2021/04/12 08:25:00;;;;;;;7.43;5.17;;;;;;;2.44;100.00;98935.48;3682088;78;43736;-21
2021/04/12 08:30:42;;;;;;;11.47;6.00;;;;;;;2.74;100.00;98943.77;3684429;79;43862;-21
2021/04/12 08:36:39;;;;;;;8.07;5.40;;;;;;;2.75;100.00;98940.16;3693022;79;43708;-22
2021/04/12 08:42:32;;;;;;;6.27;4.50;;;;;;;2.87;100.00;98946.51;3679453;79;44093;-22
2021/04/12 08:48:06;;;;;;;6.43;3.70;;;;;;;2.85;100.00;98953.24;3593034;79;43361;-22
2021/04/12 08:54:11;;;;;;;7.63;4.00;;;;;;;2.68;100.00;98974.28;3673222;79;44148;-22
2021/04/12 08:59:57;;;;;;;5.70;3.80;;;;;;;2.59;100.00;98983.69;3561346;79;43678;-22
2021/04/12 09:05:19;;;;;;;5.87;3.87;;;;;;;2.55;100.00;98995.95;3674840;79;44038;-20
2021/04/12 09:11:00;;;;;;;5.83;3.80;;;;;;;2.55;100.00;99003.94;3679093;79;44084;-21
2021/04/12 09:16:19;;;;;;;5.43;3.80;;;;;;;2.75;100.00;99011.55;3676785;79;43680;-21
2021/04/12 09:21:44;;;;;;;6.43;3.57;;;;;;;2.97;100.00;99011.50;3676474;79;44834;-21
2021/04/12 09:27:14;;;;;;;3.77;3.10;;;;;;;2.99;100.00;99020.25;3632187;80;43463;-21
2021/04/12 09:32:40;;;;;;;5.00;3.23;;;;;;;2.95;100.00;99030.70;3627364;80;44144;-21
2021/04/12 09:38:33;;;;;;;4.30;3.10;;;;;;;2.90;100.00;99038.98;3633217;80;43624;-21
2021/04/12 09:43:57;;;;;;;5.67;2.93;;;;;;;3.02;100.00;99037.33;3540832;81;42813;-20
2021/04/12 09:49:19;;;;;;;4.20;3.17;;;;;;;3.15;100.00;99039.20;3629963;80;43983;-21
2021/04/12 09:54:50;;;;;;;5.53;3.40;;;;;;;3.37;100.00;99049.33;3627840;80;44104;-23
2021/04/12 10:00:14;;;;;;;5.13;3.00;;;;;;;3.37;100.00;99048.84;3627739;80;43259;-21
2021/04/12 10:05:41;;;;;;;5.90;3.00;;;;;;;3.34;100.00;99042.41;3633784;80;43125;-21
2021/04/12 10:11:04;;;;;;;4.93;2.77;;;;;;;3.65;100.00;99032.37;3677796;79;42454;-21
2021/04/12 10:16:23;;;;;;;4.53;2.93;;;;;;;3.72;100.00;99038.16;3673484;79;44029;-21
2021/04/12 10:21:37;;;;;;;3.63;2.67;;;;;;;3.74;100.00;99035.38;3578564;81;44057;-21
2021/04/12 10:26:46;;;;;;;4.43;2.73;;;;;;;3.82;100.00;99043.73;3672868;79;44070;-21
2021/04/12 10:31:58;;;;;;;3.33;2.30;;;;;;;3.93;100.00;99040.33;3666679;79;43431;-21
2021/04/12 10:37:11;;;;;;;4.60;2.50;;;;;;;4.00;100.00;99038.94;3579319;81;43987;-21
2021/04/12 10:42:28;;;;;;;3.90;2.70;;;;;;;4.01;100.00;99041.52;3664538;79;43345;-21
2021/04/12 10:47:40;;;;;;;3.87;2.30;;;;;;;4.08;100.00;99039.30;3667811;78;44273;-21
2021/04/12 10:52:57;;;;;;;5.43;2.80;;;;;;;4.06;100.00;99038.54;3578441;81;44890;-21
2021/04/12 10:58:13;;;;;;;4.33;2.40;;;;;;;4.20;100.00;99052.25;3662640;79;44445;-21
2021/04/12 11:03:47;;;;;;;4.00;2.40;;;;;;;4.10;100.00;99057.84;3672924;79;45316;-22
2021/04/12 11:08:59;;;;;;;3.00;2.33;;;;;;;4.01;100.00;99066.85;3658357;79;43492;-22
2021/04/12 11:14:09;;;;;;;3.90;2.50;;;;;;;3.82;100.00;99064.56;3636430;80;44072;-21
2021/04/12 11:19:26;;;;;;;2.97;2.30;;;;;;;3.93;100.00;99069.66;3637515;80;43355;-22
2021/04/12 11:24:35;;;;;;;2.70;2.20;;;;;;;3.95;100.00;99072.58;3632158;80;44007;-21
2021/04/12 11:29:44;;;;;;;3.10;2.03;;;;;;;4.27;100.00;99080.70;3638805;80;43689;-21
2021/04/12 11:34:53;;;;;;;2.50;2.10;;;;;;;4.32;100.00;99092.76;3635860;80;43361;-21
2021/04/12 11:40:02;;;;;;;3.13;2.50;;;;;;;4.05;98.22;99095.49;3636070;80;44376;-22
2021/04/12 11:45:12;;;;;;;4.90;2.63;;;;;;;4.22;100.00;99089.02;3539499;82;44038;-22
2021/04/12 11:50:24;;;;;;;5.77;3.20;;;;;;;4.31;100.00;99095.05;3633274;80;44013;-21
2021/04/12 11:55:35;;;;;;;6.13;3.00;;;;;;;4.10;100.00;99104.52;3545118;82;43707;-21
2021/04/12 12:01:00;;;;;;;5.17;2.80;;;;;;;3.88;100.00;99103.28;3677706;80;43404;-22
2021/04/12 12:06:15;;;;;;;5.90;2.90;;;;;;;3.95;100.00;99103.24;3638651;80;43750;-20
2021/04/12 12:11:30;;;;;;;4.47;2.30;;;;;;;4.25;100.00;99106.16;3657811;80;44062;-22
2021/04/12 12:16:41;;;;;;;3.00;2.27;;;;;;;4.36;100.00;99103.23;3643188;79;44074;-21
2021/04/12 12:21:51;;;;;;;4.20;2.50;;;;;;;4.57;100.00;99112.42;3649569;80;44030;-22
2021/04/12 12:27:00;;;;;;;3.33;2.40;;;;;;;4.44;100.00;99118.22;3585571;81;44466;-22
2021/04/12 12:32:36;;;;;;;4.00;2.50;;;;;;;4.13;100.00;99125.16;3546127;82;43675;-21
2021/04/12 12:38:06;;;;;;;2.20;1.60;;;;;;;4.10;100.00;99138.72;3502861;83;43734;-21
2021/04/12 12:43:15;;;;;;;3.60;2.00;;;;;;;4.01;100.00;99139.31;3519651;83;43398;-23
2021/04/12 12:48:24;;;;;;;7.20;2.00;;;;;;;4.18;100.00;99142.67;3535069;82;44263;-21
2021/04/12 12:53:34;;;;;;;3.57;1.90;;;;;;;4.27;100.00;99145.59;3543017;82;43386;-21
2021/04/12 12:58:43;;;;;;;3.03;2.10;;;;;;;4.36;100.00;99148.58;3517451;83;43649;-21
2021/04/12 13:03:50;;;;;;;4.33;2.20;;;;;;;4.39;100.00;99141.72;3549653;82;44205;-21
2021/04/12 13:08:59;;;;;;;3.60;1.70;;;;;;;4.52;100.00;99140.38;3620036;80;44018;-23
2021/04/12 13:14:28;;;;;;;2.67;1.70;;;;;;;4.50;95.84;99148.51;3665711;79;43829;-23
2021/04/12 13:19:46;;;;;;;2.13;1.60;;;;;;;4.59;91.77;99144.33;3707411;79;42976;-23
2021/04/12 13:24:52;;;;;;;3.87;1.40;;;;;;;4.62;92.44;99143.66;3710979;79;43688;-23
2021/04/12 13:30:04;;;;;;;1.80;1.50;;;;;;;4.59;90.29;99139.86;3710674;79;44102;-23
2021/04/12 13:35:14;;;;;;;2.73;1.40;;;;;;;4.59;92.57;99141.20;3704493;79;44192;-23
2021/04/12 13:40:23;;;;;;;2.70;1.90;;;;;;;4.60;88.93;99142.91;3710067;79;43412;-23
2021/04/12 13:45:32;;;;;;;2.27;1.57;;;;;;;4.73;88.92;99136.73;3705209;79;44066;-25
2021/04/12 13:50:41;;;;;;;2.17;1.50;;;;;;;4.97;88.33;99127.96;3709908;79;43352;-25
2021/04/12 13:55:50;;;;;;;2.37;1.50;;;;;;;4.91;85.76;99140.77;3751137;79;44469;-23
2021/04/12 14:00:59;;;;;;;2.30;1.50;;;;;;;4.99;84.07;99134.06;3779408;77;43375;-23
2021/04/12 14:06:08;;;;;;;4.13;1.60;;;;;;;4.90;85.10;99143.06;3777683;77;43080;-23
2021/04/12 14:11:21;;;;;;;3.10;1.77;;;;;;;5.00;86.79;99143.28;3755069;77;43974;-23
2021/04/12 14:16:30;;;;;;;2.00;1.43;;;;;;;5.01;87.22;99147.66;3746986;78;43678;-23
2021/04/12 14:21:39;;;;;;;3.43;1.60;;;;;;;5.11;85.43;99145.21;3744237;78;74140;-23
2021/04/12 14:26:50;;;;;;;2.03;1.30;;;;;;;5.32;83.39;99147.31;3748983;78;43682;-24
2021/04/12 14:31:58;;;;;;;3.20;1.63;;;;;;;5.50;84.41;99142.46;3739375;78;44097;-23
2021/04/12 14:37:07;;;;;;;2.53;1.37;;;;;;;5.57;81.32;99156.23;3737520;78;43405;-23
2021/04/12 14:42:18;;;;;;;1.73;1.50;;;;;;;5.75;77.04;99152.20;3736745;78;44796;-23
2021/04/12 14:47:28;;;;;;;1.50;1.40;;;;;;;5.60;80.10;99155.52;3734493;78;43661;-23
2021/04/12 14:52:41;;;;;;;3.27;1.50;;;;;;;5.82;78.82;99147.27;3737178;78;43156;-22
2021/04/12 14:57:51;;;;;;;4.30;2.03;;;;;;;6.10;76.80;99152.78;3736655;78;44048;-23
2021/04/12 15:03:02;;;;;;;3.60;1.75;;;;;;;6.18;75.38;99154.89;3733652;78;73263;-23
2021/04/12 15:08:15;;;;;;;3.27;1.60;;;;;;;5.86;69.28;99158.11;3738060;78;44096;-23
2021/04/12 15:13:44;;;;;;;2.87;1.60;;;;;;;6.14;73.20;99161.43;3735228;78;44013;-23
2021/04/12 15:18:53;;;;;;;2.47;1.83;;;;;;;6.04;70.12;99153.72;3732839;78;43030;-23
2021/04/12 15:24:08;;;;;;;2.00;1.60;;;;;;;5.87;70.12;99153.14;3734565;78;44162;-23
2021/04/12 15:29:22;;;;;;;2.60;1.60;;;;;;;5.83;67.62;99160.51;3737204;78;43115;-23
2021/04/12 15:34:42;;;;;;;6.47;1.70;;;;;;;5.81;71.16;99158.92;3734261;78;43815;-23
2021/04/12 15:39:50;;;;;;;1.80;1.60;;;;;;;5.94;66.78;99160.23;3736905;78;43011;-23
2021/04/12 15:45:04;;;;;;;2.80;1.70;;;;;;;6.22;72.87;99164.88;3726110;78;73261;-23
2021/04/12 15:50:13;;;;;;;2.37;1.60;;;;;;;6.60;71.86;99166.47;3783696;78;43980;-23
2021/04/12 15:55:22;;;;;;;2.80;1.90;;;;;;;6.53;68.61;99162.07;3752131;78;43313;-23
2021/04/12 16:00:33;;;;;;;2.90;1.63;;;;;;;6.41;64.00;99172.38;3733379;78;43466;-24
2021/04/12 16:05:47;;;;;;;3.33;1.60;;;;;;;6.48;69.12;99169.12;3736995;78;44456;-23
2021/04/12 16:10:55;;;;;;;2.47;1.87;;;;;;;6.30;69.95;99167.81;3739011;78;43404;-23
2021/04/12 16:16:05;;;;;;;3.83;2.00;;;;;;;6.07;67.79;99178.42;3739124;78;43763;-24
2021/04/12 16:21:15;;;;;;;2.53;1.73;;;;;;;6.01;69.44;99178.39;3700699;78;43673;-24
2021/04/12 16:26:26;;;;;;;2.13;1.60;;;;;;;5.98;71.37;99182.62;3672180;79;43998;-24
2021/04/12 16:31:35;;;;;;;2.23;1.80;;;;;;;5.80;68.61;99187.50;3668980;79;44862;-22
2021/04/12 16:36:45;;;;;;;2.77;1.80;;;;;;;5.89;73.11;99191.80;3668693;79;43593;-23
2021/04/12 16:41:56;;;;;;;2.53;1.60;;;;;;;6.05;69.16;99206.26;3672209;79;43701;-23
2021/04/12 16:47:06;;;;;;;2.63;1.70;;;;;;;6.72;68.22;99197.67;3666032;79;44079;-23
2021/04/12 16:52:15;;;;;;;2.90;1.60;;;;;;;6.85;68.85;99202.08;3665973;79;42984;-24
2021/04/12 16:57:23;;;;;;;3.50;1.80;;;;;;;6.48;66.33;99199.90;3672020;79;44141;-24
2021/04/12 17:02:36;;;;;;;2.65;1.72;;;;;;;6.70;72.18;99195.59;3664967;79;43721;-24
2021/04/12 17:07:48;;;;;;;3.50;1.90;;;;;;;6.52;72.93;99217.92;3667153;79;44564;-22
2021/04/12 17:12:55;;;;;;;3.47;1.90;;;;;;;6.09;69.66;99207.75;3669262;79;43445;-23
2021/04/12 17:18:05;;;;;;;2.37;1.50;;;;;;;6.10;72.64;99211.64;3675800;79;43281;-24
2021/04/12 17:23:14;;;;;;;2.57;1.90;;;;;;;5.91;72.78;99212.59;3604356;80;43598;-23
2021/04/12 17:28:24;;;;;;;2.37;1.85;;;;;;;5.68;78.02;99213.29;3598824;80;73266;-24
2021/04/12 17:33:33;;;;;;;1.70;1.57;;;;;;;5.58;79.89;99212.74;3650806;79;43357;-23
2021/04/12 17:38:47;;;;;;;2.77;1.80;;;;;;;5.35;80.98;99207.22;3590360;80;43767;-24
2021/04/12 17:43:59;;;;;;;2.73;1.90;;;;;;;5.15;78.04;99217.47;3684698;79;44205;-22
2021/04/12 17:49:09;;;;;;;2.20;1.97;;;;;;;5.23;80.39;99229.80;3623964;80;43723;-22
2021/04/12 17:54:20;;;;;;;2.43;1.87;;;;;;;5.30;78.20;99232.06;3688997;79;43680;-24
2021/04/12 17:59:48;;;;;;;3.37;1.77;;;;;;;5.23;80.07;99239.65;3627913;80;44243;-24
2021/04/12 18:04:59;;;;;;;2.70;1.87;;;;;;;5.09;79.44;99237.95;3688892;79;44264;-23
2021/04/12 18:10:44;;;;;;;3.00;1.87;;;;;;;4.85;80.91;99245.81;3621678;80;43986;-23
2021/04/12 18:16:09;;;;;;;4.33;2.00;;;;;;;4.74;85.87;99252.73;3677036;79;43982;-22
2021/04/12 18:21:20;;;;;;;5.60;2.10;;;;;;;4.70;89.74;99265.06;3619136;80;43431;-23
2021/04/12 18:26:29;;;;;;;3.93;2.30;;;;;;;4.60;88.75;99272.36;3608333;80;43334;-23
2021/04/12 18:31:42;;;;;;;3.50;2.30;;;;;;;4.43;92.72;99268.59;3675408;79;44184;-24
2021/04/12 18:36:53;;;;;;;2.50;1.90;;;;;;;4.24;97.23;99288.49;3608939;80;42800;-23
2021/04/12 18:42:02;;;;;;;4.37;2.00;;;;;;;4.06;100.00;99289.69;3669178;79;43726;-22
2021/04/12 18:47:21;;;;;;;5.60;2.07;;;;;;;3.77;100.00;99297.71;3668557;79;44074;-25
2021/04/12 18:52:30;;;;;;;2.90;2.10;;;;;;;3.63;100.00;99303.42;3603009;80;43309;-24
2021/04/12 18:57:38;;;;;;;5.53;2.20;;;;;;;3.55;100.00;99305.72;3662365;79;44043;-23
2021/04/12 19:03:03;;;;;;;4.30;2.07;;;;;;;3.51;100.00;99306.84;3649566;78;43681;-23
2021/04/12 19:08:14;;;;;;;2.83;1.90;;;;;;;3.50;100.00;99321.11;3599874;80;44160;-25
2021/04/12 19:13:27;;;;;;;3.07;2.23;;;;;;;3.46;100.00;99327.61;3665576;78;43982;-22
2021/04/12 19:18:40;;;;;;;3.00;2.17;;;;;;;3.42;100.00;99331.39;3682751;78;44039;-23
2021/04/12 19:24:01;;;;;;;4.13;2.77;;;;;;;3.33;100.00;99340.33;3680282;78;43912;-24
2021/04/12 19:29:29;;;;;;;4.13;2.80;;;;;;;3.19;100.00;99353.61;3674348;78;42696;-23
2021/04/12 19:34:39;;;;;;;4.27;2.60;;;;;;;3.16;100.00;99353.78;3713306;78;43490;-24
2021/04/12 19:39:49;;;;;;;3.20;2.50;;;;;;;3.04;100.00;99348.23;3632376;81;44452;-27
2021/04/12 19:45:24;;;;;;;4.07;2.70;;;;;;;2.92;100.00;99350.29;3641179;80;43991;-25
2021/04/12 19:50:33;;;;;;;3.73;2.60;;;;;;;2.83;100.00;99358.33;3688218;78;44064;-25
2021/04/12 19:55:43;;;;;;;4.03;2.90;;;;;;;2.71;100.00;99367.02;3689759;78;44045;-25
2021/04/12 20:00:53;;;;;;;5.07;2.70;;;;;;;2.64;100.00;99365.21;3693795;78;43161;-28
2021/04/12 20:06:01;;;;;;;3.87;3.00;;;;;;;2.57;100.00;99363.37;3638145;79;43393;-25
2021/04/12 20:11:35;;;;;;;4.47;3.10;;;;;;;2.46;100.00;99365.30;3635256;80;44387;-25
2021/04/12 20:16:59;;;;;;;4.13;3.13;;;;;;;2.43;100.00;99367.27;3570953;81;44548;-25
2021/04/12 20:22:10;;;;;;;4.27;2.80;;;;;;;2.36;100.00;99365.43;3563623;81;44060;-26
2021/04/12 20:27:40;;;;;;;4.27;2.93;;;;;;;2.28;100.00;99367.19;3574871;81;26428;-26
2021/04/12 20:32:49;;;;;;;5.93;3.10;;;;;;;2.28;100.00;99367.67;3567626;81;43351;-26
2021/04/12 20:38:08;;;;;;;4.37;3.40;;;;;;;2.14;100.00;99373.27;3569643;81;44023;-25
2021/04/12 20:43:29;;;;;;;5.33;3.23;;;;;;;2.13;100.00;99383.52;3566000;81;43701;-27
2021/04/12 20:48:39;;;;;;;5.97;3.50;;;;;;;2.04;100.00;99383.15;3568982;81;43658;-26
2021/04/12 20:53:50;;;;;;;4.83;3.30;;;;;;;1.98;100.00;99381.68;3562456;81;44012;-26
2021/04/12 20:59:00;;;;;;;7.17;3.80;;;;;;;1.90;100.00;99380.77;3569167;81;44038;-25
2021/04/12 21:04:10;;;;;;;3.30;3.00;;;;;;;1.85;100.00;99371.71;3564044;81;44226;-25
2021/04/12 21:09:29;;;;;;;5.30;3.23;;;;;;;1.83;100.00;99371.41;3577932;81;44046;-26
2021/04/12 21:14:38;;;;;;;4.47;2.97;;;;;;;1.76;100.00;99381.52;3562023;81;44078;-26
2021/04/12 21:19:48;;;;;;;5.67;3.60;;;;;;;1.74;100.00;99382.54;3575498;81;43677;-26
2021/04/12 21:25:10;;;;;;;4.67;3.20;;;;;;;1.68;100.00;99367.78;3583458;81;44023;-25
2021/04/12 21:30:20;;;;;;;5.17;2.90;;;;;;;1.63;100.00;99382.64;3588522;81;43886;-26
2021/04/12 21:35:31;;;;;;;5.90;3.20;;;;;;;1.62;100.00;99378.27;3565403;81;43705;-25
2021/04/12 21:40:39;;;;;;;5.10;3.10;;;;;;;1.57;100.00;99389.59;3564533;81;43289;-25
2021/04/12 21:45:48;;;;;;;4.50;3.23;;;;;;;1.54;100.00;99385.30;3576150;81;43450;-25
2021/04/12 21:50:55;;;;;;;4.90;3.47;;;;;;;1.48;100.00;99387.42;3572466;81;43717;-25
2021/04/12 21:56:16;;;;;;;4.67;3.57;;;;;;;1.46;100.00;99390.16;3571667;81;43153;-26
2021/04/12 22:01:28;;;;;;;5.13;3.90;;;;;;;1.42;100.00;99397.02;3571057;81;43714;-24
2021/04/12 22:06:38;;;;;;;6.07;4.00;;;;;;;1.33;100.00;99389.08;3574520;81;44582;-27
2021/04/12 22:12:07;;;;;;;5.07;4.00;;;;;;;1.28;100.00;99395.95;3567105;81;44098;-25
2021/04/12 22:17:26;;;;;;;5.03;4.00;;;;;;;1.24;100.00;99391.73;3603883;80;44066;-27
2021/04/12 22:23:01;;;;;;;8.90;3.97;;;;;;;1.19;100.00;99395.06;3668914;79;43473;-26
2021/04/12 22:28:07;;;;;;;5.70;3.70;;;;;;;1.16;100.00;99393.92;3669377;79;44061;-26
2021/04/12 22:33:33;;;;;;;6.53;3.87;;;;;;;1.00;100.00;99394.67;3667609;79;43725;-26
2021/04/12 22:45:00;;;;;;;5.00;3.50;;;;;;;0.86;100.00;99400.68;3668239;79;44101;-25
2021/04/12 22:50:16;;;;;;;4.50;3.70;;;;;;;0.80;100.00;99403.61;3605249;80;43400;-25
2021/04/12 22:55:38;;;;;;;7.57;4.10;;;;;;;0.77;100.00;99409.06;3667116;79;43719;-25
2021/04/12 23:00:56;;;;;;;4.20;3.60;;;;;;;0.74;100.00;99409.23;3606585;80;43424;-26
2021/04/12 23:06:05;;;;;;;4.53;3.13;;;;;;;0.67;100.00;99409.13;3668497;79;43983;-25
2021/04/12 23:11:35;;;;;;;6.47;4.60;;;;;;;0.65;100.00;99414.52;3614634;80;44531;-25
2021/04/12 23:16:43;;;;;;;5.93;3.93;;;;;;;0.56;100.00;99413.63;3712312;78;43702;-26
2021/04/12 23:21:53;;;;;;;5.93;3.87;;;;;;;0.53;100.00;99413.77;3593990;81;43684;-25
2021/04/12 23:27:03;;;;;;;7.07;5.03;;;;;;;0.52;100.00;99416.03;3631230;80;42732;-25
2021/04/12 23:32:13;;;;;;;8.67;4.73;;;;;;;0.48;100.00;99412.66;3699534;78;43472;-26
2021/04/12 23:37:25;;;;;;;6.23;4.50;;;;;;;0.50;100.00;99415.23;3699715;78;43348;-27
2021/04/12 23:42:37;;;;;;;8.37;4.93;;;;;;;0.51;100.00;99420.94;3698621;78;43674;-25
2021/04/12 23:47:47;;;;;;;7.90;4.90;;;;;;;0.44;100.00;99427.87;3581606;81;43338;-25
2021/04/12 23:52:55;;;;;;;7.03;4.90;;;;;;;0.42;100.00;99424.87;3630322;80;44075;-25
2021/04/12 23:58:02;;;;;;;7.53;5.33;;;;;;;0.38;100.00;99429.47;3692683;78;43669;-25
